createdAt,value
2023-05-19T00:02:20.985Z,3.00
2023-05-19T00:04:52.325Z,2.40
2023-05-19T00:07:27.113Z,2.50
2023-05-19T00:09:58.304Z,2.40
2023-05-19T00:12:29.542Z,2.30
2023-05-19T00:15:00.592Z,2.70
2023-05-19T00:17:31.053Z,2.60
2023-05-19T00:20:01.562Z,2.70
2023-05-19T00:22:31.941Z,2.60
2023-05-19T00:25:02.332Z,2.70
2023-05-19T00:27:32.638Z,2.10
2023-05-19T00:30:02.989Z,2.30
2023-05-19T00:32:33.382Z,2.70
2023-05-19T00:35:03.740Z,2.10
2023-05-19T00:37:34.189Z,2.50
2023-05-19T00:40:06.251Z,2.40
2023-05-19T00:42:36.708Z,2.60
2023-05-19T00:45:08.836Z,2.30
2023-05-19T00:47:39.350Z,2.80
2023-05-19T00:50:11.458Z,2.40
2023-05-19T00:52:41.981Z,2.50
2023-05-19T00:55:13.963Z,2.80
2023-05-19T00:57:45.402Z,2.40
2023-05-19T01:00:18.285Z,2.50
2023-05-19T01:02:50.370Z,2.10
2023-05-19T01:05:20.906Z,2.70
2023-05-19T01:07:53.644Z,2.10
2023-05-19T01:10:24.133Z,2.40
2023-05-19T01:12:54.505Z,2.60
2023-05-19T01:15:26.725Z,2.80
2023-05-19T01:18:07.461Z,3.00
2023-05-19T01:20:46.511Z,2.80
2023-05-19T01:23:29.834Z,2.60
2023-05-19T01:26:18.755Z,2.80
2023-05-19T01:29:31.475Z,2.50
2023-05-19T01:32:04.997Z,3.10
2023-05-19T01:34:36.202Z,2.30
2023-05-19T01:37:08.931Z,2.20
2023-05-19T01:39:41.469Z,2.40
2023-05-19T01:42:12.883Z,2.40
2023-05-19T01:44:44.140Z,2.20
2023-05-19T01:47:15.454Z,2.40
2023-05-19T01:49:46.697Z,2.20
2023-05-19T01:52:17.062Z,2.30
2023-05-19T01:54:47.472Z,2.30
2023-05-19T01:57:25.854Z,2.70
2023-05-19T02:00:05.669Z,2.60
2023-05-19T02:02:55.103Z,2.30
2023-05-19T02:05:34.740Z,2.40
2023-05-19T02:08:13.065Z,2.30
2023-05-19T02:10:48.896Z,2.20
2023-05-19T02:13:21.974Z,2.70
2023-05-19T02:15:55.496Z,2.50
2023-05-19T02:18:26.203Z,2.40
2023-05-19T02:20:56.563Z,2.90
2023-05-19T02:23:28.237Z,3.00
2023-05-19T02:26:01.447Z,2.20
2023-05-19T02:28:31.869Z,2.60
2023-05-19T02:31:02.652Z,2.30
2023-05-19T02:33:33.147Z,2.80
2023-05-19T02:36:03.534Z,2.40
2023-05-19T02:38:33.906Z,2.80
2023-05-19T02:41:04.208Z,2.50
2023-05-19T02:43:34.579Z,2.40
2023-05-19T02:46:05.002Z,2.80
2023-05-19T02:48:35.467Z,2.50
2023-05-19T02:51:07.362Z,3.10
2023-05-19T02:53:37.786Z,2.60
2023-05-19T02:56:08.823Z,2.70
2023-05-19T02:58:39.552Z,3.00
2023-05-19T03:01:10.096Z,2.30
2023-05-19T03:03:40.543Z,3.20
2023-05-19T03:06:11.465Z,2.70
2023-05-19T03:08:42.511Z,3.20
2023-05-19T03:11:13.062Z,2.40
2023-05-19T03:13:43.493Z,2.70
2023-05-19T03:16:14.031Z,2.30
2023-05-19T03:18:45.779Z,3.10
2023-05-19T03:21:16.278Z,2.30
2023-05-19T03:23:47.182Z,2.50
2023-05-19T03:26:17.551Z,2.60
2023-05-19T03:28:48.575Z,2.70
2023-05-19T03:31:18.986Z,2.90
2023-05-19T03:33:49.473Z,3.10
2023-05-19T03:36:19.794Z,2.30
2023-05-19T03:38:50.672Z,2.30
2023-05-19T03:41:21.136Z,2.30
2023-05-19T03:43:51.592Z,2.30
2023-05-19T03:46:22.137Z,2.50
2023-05-19T03:49:11.458Z,2.40
2023-05-19T03:52:03.373Z,2.70
2023-05-19T03:54:57.745Z,2.50
2023-05-19T03:57:29.810Z,2.70
2023-05-19T04:00:00.291Z,2.70
2023-05-19T04:02:31.714Z,2.60
2023-05-19T04:05:04.868Z,2.50
2023-05-19T04:07:35.979Z,2.20
2023-05-19T04:10:08.439Z,2.20
2023-05-19T04:12:38.836Z,2.20
2023-05-19T04:15:12.382Z,2.50
2023-05-19T04:17:44.399Z,2.70
2023-05-19T04:20:15.903Z,2.50
2023-05-19T04:22:46.345Z,2.90
2023-05-19T04:25:16.770Z,2.80
2023-05-19T04:27:48.274Z,2.80
2023-05-19T04:30:22.610Z,2.60
2023-05-19T04:32:54.032Z,2.60
2023-05-19T04:35:24.504Z,3.00
2023-05-19T04:37:55.773Z,2.70
2023-05-19T04:40:31.421Z,2.60
2023-05-19T04:43:02.986Z,2.80
2023-05-19T04:45:34.194Z,2.60
2023-05-19T04:48:06.120Z,2.30
2023-05-19T04:50:38.655Z,2.60
2023-05-19T04:53:09.185Z,2.80
2023-05-19T04:55:39.975Z,2.30
2023-05-19T04:58:10.850Z,2.60
2023-05-19T05:00:41.407Z,2.70
2023-05-19T05:03:14.685Z,2.80
2023-05-19T05:05:45.690Z,2.30
2023-05-19T05:08:22.847Z,2.50
2023-05-19T05:10:55.468Z,2.30
2023-05-19T05:13:27.059Z,2.60
2023-05-19T05:15:58.583Z,2.30
2023-05-19T05:18:30.629Z,2.20
2023-05-19T05:21:01.867Z,2.30
2023-05-19T05:23:33.801Z,1.90
2023-05-19T05:26:10.650Z,2.30
2023-05-19T05:28:42.527Z,1.80
2023-05-19T05:31:12.989Z,2.00
2023-05-19T05:33:44.183Z,1.70
2023-05-19T05:36:14.859Z,1.50
2023-05-19T05:38:45.479Z,1.80
2023-05-19T05:41:16.609Z,1.90
2023-05-19T05:43:47.295Z,1.40
2023-05-19T05:46:17.696Z,1.70
2023-05-19T05:48:49.353Z,2.00
2023-05-19T05:51:22.312Z,1.80
2023-05-19T05:53:55.778Z,2.30
2023-05-19T05:56:33.844Z,1.60
2023-05-19T05:59:05.814Z,1.70
2023-05-19T06:01:37.942Z,2.10
2023-05-19T06:04:10.128Z,2.20
2023-05-19T06:06:41.253Z,2.20
2023-05-19T06:09:12.536Z,2.00
2023-05-19T06:11:43.051Z,1.60
2023-05-19T06:14:13.770Z,2.20
2023-05-19T06:16:54.273Z,2.20
2023-05-19T06:19:25.773Z,2.20
2023-05-19T06:21:56.377Z,2.30
2023-05-19T06:24:27.038Z,3.00
2023-05-19T06:26:57.487Z,2.30
2023-05-19T06:29:28.453Z,2.70
2023-05-19T06:31:59.781Z,2.00
2023-05-19T06:34:30.497Z,3.00
2023-05-19T06:37:02.377Z,2.40
2023-05-19T06:39:34.950Z,3.20
2023-05-19T06:42:06.178Z,2.70
2023-05-19T06:45:15.427Z,2.30
2023-05-19T06:47:45.922Z,2.50
2023-05-19T06:50:16.737Z,3.70
2023-05-19T06:52:47.733Z,3.80
2023-05-19T06:55:18.299Z,3.20
2023-05-19T06:57:48.698Z,3.20
2023-05-19T07:00:23.079Z,3.30
2023-05-19T07:03:02.747Z,2.80
2023-05-19T07:05:33.229Z,3.10
2023-05-19T07:08:05.105Z,2.90
2023-05-19T07:10:35.907Z,2.40
2023-05-19T07:13:09.205Z,2.60
2023-05-19T07:15:40.178Z,3.40
2023-05-19T07:18:10.778Z,2.60
2023-05-19T07:20:41.249Z,2.90
2023-05-19T07:23:11.584Z,2.60
2023-05-19T07:25:42.562Z,2.30
2023-05-19T07:28:14.640Z,2.10
2023-05-19T07:30:45.833Z,2.20
2023-05-19T07:33:16.519Z,2.90
2023-05-19T07:35:47.109Z,3.00
2023-05-19T07:38:18.731Z,2.90
2023-05-19T07:40:49.251Z,2.60
2023-05-19T07:43:19.599Z,2.50
2023-05-19T07:45:50.044Z,2.10
2023-05-19T07:48:22.578Z,2.30
2023-05-19T07:50:53.528Z,2.10
2023-05-19T07:53:23.984Z,2.70
2023-05-19T07:55:55.473Z,2.20
2023-05-19T07:58:27.746Z,2.30
2023-05-19T08:00:59.732Z,2.20
2023-05-19T08:03:30.599Z,2.00
2023-05-19T08:06:01.230Z,2.10
2023-05-19T08:08:33.475Z,2.30
2023-05-19T08:11:06.649Z,1.90
2023-05-19T08:13:37.118Z,2.20
2023-05-19T08:16:08.457Z,1.90
2023-05-19T08:18:39.199Z,2.20
2023-05-19T08:21:09.619Z,1.90
2023-05-19T08:23:40.022Z,2.10
2023-05-19T08:26:10.479Z,1.80
2023-05-19T08:28:41.650Z,2.00
2023-05-19T08:31:12.033Z,1.80
2023-05-19T08:33:42.630Z,2.00
2023-05-19T08:36:13.068Z,1.90
2023-05-19T08:38:43.569Z,2.00
2023-05-19T08:41:14.029Z,2.20
2023-05-19T08:43:45.764Z,1.90
2023-05-19T08:46:17.490Z,1.50
2023-05-19T08:48:53.205Z,1.90
2023-05-19T08:51:33.838Z,2.00
2023-05-19T08:54:10.436Z,1.90
2023-05-19T08:56:41.531Z,1.90
2023-05-19T08:59:13.157Z,1.90
2023-05-19T09:01:46.404Z,1.90
2023-05-19T09:04:18.063Z,2.40
2023-05-19T09:06:48.580Z,2.10
2023-05-19T09:09:18.975Z,2.00
2023-05-19T09:11:49.821Z,2.10
2023-05-19T09:14:20.155Z,1.80
2023-05-19T09:16:52.803Z,2.10
2023-05-19T09:19:23.294Z,1.90
2023-05-19T09:22:03.258Z,2.00
2023-05-19T09:24:34.963Z,2.30
2023-05-19T09:27:05.878Z,2.30
2023-05-19T09:29:36.594Z,2.30
2023-05-19T09:32:08.158Z,2.30
2023-05-19T09:34:43.992Z,1.90
2023-05-19T09:37:15.941Z,1.80
2023-05-19T09:39:49.259Z,1.80
2023-05-19T09:42:25.018Z,2.40
2023-05-19T09:45:02.516Z,2.10
2023-05-19T09:47:38.447Z,2.20
2023-05-19T09:50:11.379Z,2.60
2023-05-19T09:52:44.655Z,2.30
2023-05-19T09:55:15.828Z,2.10
2023-05-19T09:57:47.583Z,1.70
2023-05-19T10:00:20.955Z,2.20
2023-05-19T10:02:52.350Z,2.80
2023-05-19T10:05:23.278Z,2.60
2023-05-19T10:07:55.229Z,2.90
2023-05-19T10:10:26.353Z,2.70
2023-05-19T10:12:57.078Z,2.70
2023-05-19T10:15:27.675Z,2.60
2023-05-19T10:17:59.447Z,2.30
2023-05-19T10:20:30.493Z,2.60
2023-05-19T10:23:02.953Z,2.20
2023-05-19T10:25:36.537Z,2.50
2023-05-19T10:28:11.242Z,3.10
2023-05-19T10:30:46.005Z,3.80
2023-05-19T10:33:19.995Z,3.00
2023-05-19T10:36:09.073Z,2.90
2023-05-19T10:38:53.403Z,2.90
2023-05-19T10:41:29.676Z,3.20
2023-05-19T10:44:11.046Z,3.50
2023-05-19T10:46:43.236Z,3.90
2023-05-19T10:49:22.974Z,2.50
2023-05-19T10:51:56.765Z,3.40
2023-05-19T10:54:50.060Z,4.30
2023-05-19T10:57:21.336Z,4.10
2023-05-19T10:59:51.701Z,2.80
2023-05-19T11:02:43.101Z,3.10
2023-05-19T11:05:16.645Z,3.70
2023-05-19T11:07:56.283Z,3.50
2023-05-19T11:10:27.216Z,3.70
2023-05-19T11:12:59.423Z,3.90
2023-05-19T11:15:30.344Z,4.70
2023-05-19T11:18:04.011Z,4.50
2023-05-19T11:20:39.840Z,4.10
2023-05-19T11:23:11.735Z,3.90
2023-05-19T11:25:47.845Z,3.50
2023-05-19T11:28:25.662Z,3.70
2023-05-19T11:30:57.764Z,3.20
2023-05-19T11:33:29.189Z,2.30
2023-05-19T11:35:59.625Z,3.30
2023-05-19T11:38:31.011Z,3.50
2023-05-19T11:41:01.467Z,2.90
2023-05-19T11:43:31.914Z,2.90
2023-05-19T11:46:02.364Z,3.50
2023-05-19T11:48:32.974Z,3.30
2023-05-19T11:51:04.052Z,3.90
2023-05-19T11:53:36.176Z,3.30
2023-05-19T11:56:07.644Z,3.20
2023-05-19T11:58:39.664Z,2.90
2023-05-19T12:01:11.248Z,3.60
2023-05-19T12:03:41.764Z,3.70
2023-05-19T12:06:17.383Z,3.00
2023-05-19T12:08:47.964Z,3.10
2023-05-19T12:11:20.059Z,3.10
2023-05-19T12:13:54.629Z,3.30
2023-05-19T12:16:25.235Z,3.90
2023-05-19T12:18:57.855Z,3.80
2023-05-19T12:21:34.335Z,3.60
2023-05-19T12:24:06.650Z,3.30
2023-05-19T12:26:37.966Z,3.70
2023-05-19T12:29:08.886Z,4.50
2023-05-19T12:31:39.750Z,5.20
2023-05-19T12:34:10.311Z,4.40
2023-05-19T12:36:42.182Z,4.20
2023-05-19T12:39:13.734Z,4.40
2023-05-19T12:41:47.328Z,4.30
2023-05-19T12:44:19.088Z,5.30
2023-05-19T12:46:52.991Z,4.50
2023-05-19T12:49:23.461Z,4.40
2023-05-19T12:51:55.641Z,4.70
2023-05-19T12:54:26.313Z,5.10
2023-05-19T12:56:58.776Z,4.90
2023-05-19T12:59:38.344Z,3.90
2023-05-19T13:02:09.545Z,4.40
2023-05-19T13:04:40.104Z,4.40
2023-05-19T13:07:10.575Z,5.30
2023-05-19T13:09:40.945Z,5.40
2023-05-19T13:12:11.592Z,5.50
2023-05-19T13:14:43.662Z,6.30
2023-05-19T13:17:14.018Z,6.10
2023-05-19T13:19:44.395Z,9.00
2023-05-19T13:22:15.144Z,8.10
2023-05-19T13:24:45.505Z,7.90
2023-05-19T13:27:15.850Z,7.70
2023-05-19T13:29:46.140Z,9.20
2023-05-19T13:32:16.702Z,7.40
2023-05-19T13:34:47.142Z,7.80
2023-05-19T13:37:17.568Z,8.00
2023-05-19T13:39:47.933Z,7.70
2023-05-19T13:42:18.559Z,7.20
2023-05-19T13:44:49.411Z,7.90
2023-05-19T13:47:20.033Z,7.80
2023-05-19T13:49:50.662Z,9.00
2023-05-19T13:52:21.382Z,7.10
2023-05-19T13:54:54.508Z,7.40
2023-05-19T13:57:26.480Z,8.40
2023-05-19T14:00:03.333Z,8.90
2023-05-19T14:02:44.484Z,6.30
2023-05-19T14:05:14.962Z,8.20
2023-05-19T14:07:45.533Z,8.00
2023-05-19T14:10:16.387Z,8.50
2023-05-19T14:13:12.391Z,7.60
2023-05-19T14:15:38.334Z,8.40
2023-05-19T14:18:09.028Z,7.60
2023-05-19T14:20:39.438Z,8.80
2023-05-19T14:23:09.824Z,9.00
2023-05-19T14:25:40.293Z,8.20
2023-05-19T14:28:11.628Z,8.00
2023-05-19T14:30:42.542Z,7.30
2023-05-19T14:33:13.194Z,7.70
2023-05-19T14:35:43.959Z,8.40
2023-05-19T14:38:15.381Z,8.10
2023-05-19T14:40:48.492Z,8.20
2023-05-19T14:43:19.215Z,6.90
2023-05-19T14:45:52.074Z,7.60
2023-05-19T14:48:23.419Z,7.10
2023-05-19T14:50:54.088Z,7.70
2023-05-19T14:53:24.905Z,7.90
2023-05-19T14:55:55.290Z,7.30
2023-05-19T14:58:28.230Z,7.30
2023-05-19T15:01:00.975Z,7.80
2023-05-19T15:03:31.443Z,8.80
2023-05-19T15:06:01.923Z,7.90
2023-05-19T15:08:32.333Z,8.80
2023-05-19T15:11:02.661Z,8.60
2023-05-19T15:13:33.051Z,9.20
2023-05-19T15:16:16.190Z,8.30
2023-05-19T15:18:47.688Z,9.20
2023-05-19T15:21:18.460Z,9.10
2023-05-19T15:23:48.956Z,9.70
2023-05-19T15:26:19.352Z,9.20
2023-05-19T15:28:49.637Z,9.70
2023-05-19T15:31:20.101Z,11.60
2023-05-19T15:33:50.554Z,10.30
2023-05-19T15:36:20.953Z,10.30
2023-05-19T15:38:51.343Z,9.80
2023-05-19T15:41:21.938Z,9.70
2023-05-19T15:43:53.365Z,10.30
2023-05-19T15:46:24.160Z,9.60
2023-05-19T15:48:54.664Z,10.10
2023-05-19T15:51:25.250Z,10.10
2023-05-19T15:53:55.617Z,9.20
2023-05-19T15:56:26.038Z,10.70
2023-05-19T15:58:56.468Z,10.90
2023-05-19T16:01:27.354Z,10.60
2023-05-19T16:03:57.950Z,10.00
2023-05-19T16:06:28.584Z,10.90
2023-05-19T16:08:59.054Z,10.70
2023-05-19T16:11:29.801Z,10.10
2023-05-19T16:14:00.247Z,10.50
2023-05-19T16:16:30.682Z,10.30
2023-05-19T16:19:01.223Z,9.90
2023-05-19T16:21:32.178Z,9.90
2023-05-19T16:24:02.581Z,10.10
2023-05-19T16:26:34.406Z,8.70
2023-05-19T16:29:04.963Z,10.40
2023-05-19T16:31:35.393Z,9.30
2023-05-19T16:34:05.830Z,8.90
2023-05-19T16:36:36.502Z,10.20
2023-05-19T16:39:07.009Z,7.80
2023-05-19T16:41:37.529Z,9.10
2023-05-19T16:44:08.059Z,7.90
2023-05-19T16:46:38.470Z,8.20
2023-05-19T16:49:09.125Z,7.30
2023-05-19T16:51:39.505Z,7.80
2023-05-19T16:54:09.842Z,9.60
2023-05-19T16:56:40.226Z,7.90
2023-05-19T16:59:11.593Z,7.60
2023-05-19T17:01:42.036Z,8.10
2023-05-19T17:04:13.331Z,7.60
2023-05-19T17:06:43.914Z,7.30
2023-05-19T17:09:14.338Z,8.10
2023-05-19T17:11:44.814Z,8.90
2023-05-19T17:14:15.340Z,8.30
2023-05-19T17:16:45.740Z,7.40
2023-05-19T17:19:16.962Z,8.80
2023-05-19T17:21:47.377Z,7.10
2023-05-19T17:24:17.758Z,8.20
2023-05-19T17:26:48.113Z,7.90
2023-05-19T17:29:18.498Z,7.60
2023-05-19T17:31:48.923Z,7.90
2023-05-19T17:34:19.301Z,8.10
2023-05-19T17:36:50.524Z,7.70
2023-05-19T17:39:21.247Z,7.20
2023-05-19T17:41:51.667Z,7.00
2023-05-19T17:44:22.017Z,7.40
2023-05-19T17:46:52.773Z,6.60
2023-05-19T17:49:25.742Z,6.60
2023-05-19T17:51:57.672Z,5.70
2023-05-19T17:54:28.937Z,7.30
2023-05-19T17:57:03.381Z,6.40
2023-05-19T17:59:35.274Z,6.20
2023-05-19T18:02:07.215Z,6.30
2023-05-19T18:04:38.949Z,7.20
2023-05-19T18:07:11.932Z,7.00
2023-05-19T18:09:45.579Z,6.80
2023-05-19T18:12:16.335Z,7.50
2023-05-19T18:14:47.156Z,7.00
2023-05-19T18:17:17.469Z,7.00
2023-05-19T18:19:49.522Z,7.00
2023-05-19T18:22:20.112Z,6.60
2023-05-19T18:24:50.577Z,6.90
2023-05-19T18:27:20.894Z,7.80
2023-05-19T18:29:51.339Z,8.10
2023-05-19T18:32:21.738Z,8.30
2023-05-19T18:34:52.147Z,7.80
2023-05-19T18:37:22.818Z,9.30
2023-05-19T18:39:53.216Z,8.00
2023-05-19T18:42:25.636Z,7.90
2023-05-19T18:44:55.989Z,8.10
2023-05-19T18:47:26.674Z,8.60
2023-05-19T18:49:57.250Z,9.00
2023-05-19T18:52:28.705Z,9.10
2023-05-19T18:55:01.122Z,8.00
2023-05-19T18:57:31.681Z,8.90
2023-05-19T19:00:02.393Z,7.50
2023-05-19T19:02:32.759Z,9.90
2023-05-19T19:05:05.134Z,8.40
2023-05-19T19:07:35.635Z,7.70
2023-05-19T19:10:06.504Z,8.00
2023-05-19T19:12:37.057Z,8.40
2023-05-19T19:15:09.499Z,8.70
2023-05-19T19:17:41.094Z,7.90
2023-05-19T19:20:13.053Z,8.50
2023-05-19T19:22:43.469Z,8.70
2023-05-19T19:25:13.900Z,8.70
2023-05-19T19:27:44.205Z,9.20
2023-05-19T19:30:15.066Z,9.10
2023-05-19T19:32:45.502Z,9.50
2023-05-19T19:35:16.836Z,8.70
2023-05-19T19:37:47.917Z,9.40
2023-05-19T19:40:18.704Z,8.80
2023-05-19T19:42:49.091Z,9.00
2023-05-19T19:45:20.953Z,9.00
2023-05-19T19:47:51.739Z,9.20
2023-05-19T19:50:23.644Z,9.40
2023-05-19T19:52:54.020Z,9.40
2023-05-19T19:55:24.456Z,9.00
2023-05-19T19:57:54.806Z,10.40
2023-05-19T20:00:25.583Z,10.30
2023-05-19T20:03:04.903Z,8.50
2023-05-19T20:05:38.090Z,9.80
2023-05-19T20:08:08.633Z,10.30
2023-05-19T20:10:39.045Z,10.70
2023-05-19T20:13:09.501Z,9.90
2023-05-19T20:15:39.904Z,12.40
2023-05-19T20:18:10.870Z,10.60
2023-05-19T20:20:42.315Z,9.20
2023-05-19T20:23:13.446Z,9.50
2023-05-19T20:25:53.697Z,10.70
2023-05-19T20:28:33.264Z,9.90
2023-05-19T20:31:03.864Z,10.70
2023-05-19T20:33:34.308Z,11.10
2023-05-19T20:36:05.904Z,10.40
2023-05-19T20:38:36.289Z,10.00
2023-05-19T20:41:06.705Z,9.30
2023-05-19T20:43:37.118Z,10.40
2023-05-19T20:46:07.605Z,10.50
2023-05-19T20:48:38.181Z,10.60
2023-05-19T20:51:09.107Z,10.10
2023-05-19T20:53:39.476Z,11.10
2023-05-19T20:56:10.583Z,9.40
2023-05-19T20:58:41.134Z,12.70
2023-05-19T21:01:11.573Z,7.50
2023-05-19T21:03:42.026Z,10.50
2023-05-19T21:06:12.470Z,10.60
2023-05-19T21:08:42.884Z,10.10
2023-05-19T21:11:13.366Z,10.10
2023-05-19T21:13:43.744Z,11.40
2023-05-19T21:16:14.095Z,10.00
2023-05-19T21:18:44.457Z,10.70
2023-05-19T21:21:14.840Z,9.60
2023-05-19T21:23:45.236Z,10.80
2023-05-19T21:26:15.555Z,9.70
2023-05-19T21:28:46.296Z,11.00
2023-05-19T21:31:16.747Z,11.20
2023-05-19T21:33:47.245Z,10.50
2023-05-19T21:36:18.420Z,10.50
2023-05-19T21:38:48.841Z,13.80
2023-05-19T21:41:19.330Z,10.50
2023-05-19T21:43:49.688Z,10.00
2023-05-19T21:46:20.201Z,11.00
2023-05-19T21:48:50.584Z,12.80
2023-05-19T21:51:20.996Z,12.10
2023-05-19T21:53:51.453Z,11.80
2023-05-19T21:56:22.752Z,11.90
2023-05-19T21:58:53.209Z,12.80
2023-05-19T22:01:23.779Z,15.20
2023-05-19T22:03:55.054Z,13.80
2023-05-19T22:06:25.432Z,12.20
2023-05-19T22:08:55.873Z,12.20
2023-05-19T22:11:26.561Z,11.80
2023-05-19T22:13:56.918Z,12.80
2023-05-19T22:16:27.448Z,11.40
2023-05-19T22:18:58.206Z,13.40
2023-05-19T22:21:28.680Z,13.00
2023-05-19T22:23:59.089Z,11.80
2023-05-19T22:26:29.459Z,11.70
2023-05-19T22:28:59.858Z,13.70
2023-05-19T22:31:31.065Z,13.20
2023-05-19T22:34:01.466Z,13.90
2023-05-19T22:36:32.256Z,12.00
2023-05-19T22:39:02.672Z,11.40
2023-05-19T22:41:33.093Z,12.20
2023-05-19T22:44:03.613Z,14.10
2023-05-19T22:46:34.250Z,14.90
2023-05-19T22:49:04.784Z,13.90
2023-05-19T22:51:35.163Z,12.50
2023-05-19T22:54:05.919Z,12.50
2023-05-19T22:56:36.377Z,12.00
2023-05-19T22:59:07.005Z,14.00
2023-05-19T23:01:37.492Z,13.40
2023-05-19T23:04:08.259Z,12.70
2023-05-19T23:06:38.813Z,13.10
2023-05-19T23:09:09.213Z,12.40
2023-05-19T23:11:39.623Z,11.50
2023-05-19T23:14:09.983Z,13.10
2023-05-19T23:16:40.416Z,11.80
2023-05-19T23:19:11.065Z,11.80
2023-05-19T23:21:41.458Z,12.60
2023-05-19T23:24:11.796Z,12.20
2023-05-19T23:26:42.748Z,13.40
2023-05-19T23:29:15.131Z,12.90
2023-05-19T23:31:46.122Z,12.10
2023-05-19T23:34:16.593Z,12.20
2023-05-19T23:36:46.965Z,11.40
2023-05-19T23:39:17.428Z,11.70
2023-05-19T23:41:47.804Z,14.00
2023-05-19T23:44:19.131Z,11.40
2023-05-19T23:46:49.621Z,11.90
2023-05-19T23:49:20.439Z,10.60
2023-05-19T23:51:50.898Z,11.50
2023-05-19T23:54:21.260Z,13.20
2023-05-19T23:56:51.665Z,11.50
2023-05-19T23:59:22.129Z,11.20
